sensor_id;sensor_type;location;lat;lon;timestamp;P1;durP1;ratioP1;P2;durP2;ratioP2
57331;SDS011;43164;50.908;18.092;2023-06-14T00:01:08;7.50;;;3.40;;
57331;SDS011;43164;50.908;18.092;2023-06-14T00:03:36;9.70;;;3.80;;
57331;SDS011;43164;50.908;18.092;2023-06-14T00:06:05;7.60;;;3.30;;
57331;SDS011;43164;50.908;18.092;2023-06-14T00:08:33;7.90;;;3.20;;
57331;SDS011;43164;50.908;18.092;2023-06-14T00:11:01;6.20;;;3.00;;
57331;SDS011;43164;50.908;18.092;2023-06-14T00:13:29;6.50;;;3.00;;
57331;SDS011;43164;50.908;18.092;2023-06-14T00:15:57;6.60;;;2.70;;
57331;SDS011;43164;50.908;18.092;2023-06-14T00:18:25;6.00;;;2.70;;
57331;SDS011;43164;50.908;18.092;2023-06-14T00:20:58;7.00;;;2.90;;
57331;SDS011;43164;50.908;18.092;2023-06-14T00:23:26;6.60;;;3.10;;
57331;SDS011;43164;50.908;18.092;2023-06-14T00:25:57;9.20;;;3.70;;
57331;SDS011;43164;50.908;18.092;2023-06-14T00:28:26;7.80;;;3.10;;
57331;SDS011;43164;50.908;18.092;2023-06-14T00:30:54;8.30;;;3.90;;
57331;SDS011;43164;50.908;18.092;2023-06-14T00:33:23;6.90;;;3.30;;
57331;SDS011;43164;50.908;18.092;2023-06-14T00:35:51;6.50;;;3.00;;
57331;SDS011;43164;50.908;18.092;2023-06-14T00:38:21;7.80;;;3.10;;
57331;SDS011;43164;50.908;18.092;2023-06-14T00:40:49;7.80;;;3.50;;
57331;SDS011;43164;50.908;18.092;2023-06-14T00:43:16;8.70;;;3.60;;
57331;SDS011;43164;50.908;18.092;2023-06-14T00:45:44;8.10;;;3.60;;
57331;SDS011;43164;50.908;18.092;2023-06-14T00:48:12;8.00;;;3.70;;
57331;SDS011;43164;50.908;18.092;2023-06-14T00:50:41;8.70;;;3.10;;
57331;SDS011;43164;50.908;18.092;2023-06-14T00:53:12;8.40;;;3.60;;
57331;SDS011;43164;50.908;18.092;2023-06-14T00:55:42;6.70;;;3.20;;
57331;SDS011;43164;50.908;18.092;2023-06-14T00:58:11;7.50;;;3.70;;
57331;SDS011;43164;50.908;18.092;2023-06-14T01:00:39;7.00;;;3.30;;
57331;SDS011;43164;50.908;18.092;2023-06-14T01:03:07;9.70;;;3.80;;
57331;SDS011;43164;50.908;18.092;2023-06-14T01:05:43;8.30;;;3.60;;
57331;SDS011;43164;50.908;18.092;2023-06-14T01:08:19;10.70;;;4.30;;
57331;SDS011;43164;50.908;18.092;2023-06-14T01:13:36;9.80;;;4.30;;
57331;SDS011;43164;50.908;18.092;2023-06-14T01:16:07;10.20;;;5.20;;
57331;SDS011;43164;50.908;18.092;2023-06-14T01:18:35;10.30;;;4.30;;
57331;SDS011;43164;50.908;18.092;2023-06-14T01:21:04;10.60;;;4.60;;
57331;SDS011;43164;50.908;18.092;2023-06-14T01:23:36;10.50;;;4.70;;
57331;SDS011;43164;50.908;18.092;2023-06-14T01:26:04;10.30;;;5.00;;
57331;SDS011;43164;50.908;18.092;2023-06-14T01:28:32;8.90;;;4.90;;
57331;SDS011;43164;50.908;18.092;2023-06-14T01:31:02;10.90;;;4.90;;
57331;SDS011;43164;50.908;18.092;2023-06-14T01:33:31;9.60;;;5.20;;
57331;SDS011;43164;50.908;18.092;2023-06-14T01:36:01;10.90;;;5.10;;
57331;SDS011;43164;50.908;18.092;2023-06-14T01:38:30;10.00;;;5.00;;
57331;SDS011;43164;50.908;18.092;2023-06-14T01:41:08;10.20;;;4.90;;
57331;SDS011;43164;50.908;18.092;2023-06-14T01:43:37;10.20;;;4.70;;
57331;SDS011;43164;50.908;18.092;2023-06-14T01:46:12;9.30;;;4.80;;
57331;SDS011;43164;50.908;18.092;2023-06-14T01:48:41;9.10;;;4.70;;
57331;SDS011;43164;50.908;18.092;2023-06-14T01:51:10;11.60;;;5.30;;
57331;SDS011;43164;50.908;18.092;2023-06-14T01:53:38;11.30;;;5.30;;
57331;SDS011;43164;50.908;18.092;2023-06-14T01:56:06;11.40;;;5.40;;
57331;SDS011;43164;50.908;18.092;2023-06-14T01:58:34;9.40;;;4.90;;
57331;SDS011;43164;50.908;18.092;2023-06-14T02:01:08;10.70;;;5.00;;
57331;SDS011;43164;50.908;18.092;2023-06-14T02:03:35;10.10;;;4.70;;
57331;SDS011;43164;50.908;18.092;2023-06-14T02:06:05;15.00;;;6.90;;
57331;SDS011;43164;50.908;18.092;2023-06-14T02:08:32;10.90;;;5.20;;
57331;SDS011;43164;50.908;18.092;2023-06-14T02:11:01;14.80;;;5.50;;
57331;SDS011;43164;50.908;18.092;2023-06-14T02:13:29;10.00;;;4.50;;
57331;SDS011;43164;50.908;18.092;2023-06-14T02:15:57;10.90;;;4.80;;
57331;SDS011;43164;50.908;18.092;2023-06-14T02:18:26;9.30;;;4.40;;
57331;SDS011;43164;50.908;18.092;2023-06-14T02:20:54;10.30;;;4.60;;
57331;SDS011;43164;50.908;18.092;2023-06-14T02:23:22;9.20;;;4.40;;
57331;SDS011;43164;50.908;18.092;2023-06-14T02:25:50;11.20;;;4.80;;
57331;SDS011;43164;50.908;18.092;2023-06-14T02:28:18;10.40;;;5.00;;
57331;SDS011;43164;50.908;18.092;2023-06-14T02:30:47;9.70;;;4.90;;
57331;SDS011;43164;50.908;18.092;2023-06-14T02:33:15;9.50;;;4.60;;
57331;SDS011;43164;50.908;18.092;2023-06-14T02:35:44;11.00;;;5.10;;
57331;SDS011;43164;50.908;18.092;2023-06-14T02:38:13;9.10;;;4.30;;
57331;SDS011;43164;50.908;18.092;2023-06-14T02:40:41;11.40;;;4.70;;
57331;SDS011;43164;50.908;18.092;2023-06-14T02:43:09;11.20;;;4.60;;
57331;SDS011;43164;50.908;18.092;2023-06-14T02:45:37;11.40;;;4.40;;
57331;SDS011;43164;50.908;18.092;2023-06-14T02:48:05;11.40;;;4.70;;
57331;SDS011;43164;50.908;18.092;2023-06-14T02:50:33;8.60;;;4.40;;
57331;SDS011;43164;50.908;18.092;2023-06-14T02:53:02;11.40;;;5.40;;
57331;SDS011;43164;50.908;18.092;2023-06-14T02:55:30;11.40;;;5.00;;
57331;SDS011;43164;50.908;18.092;2023-06-14T02:57:58;8.70;;;4.20;;
57331;SDS011;43164;50.908;18.092;2023-06-14T03:00:25;8.90;;;4.40;;
57331;SDS011;43164;50.908;18.092;2023-06-14T03:02:53;11.80;;;4.30;;
57331;SDS011;43164;50.908;18.092;2023-06-14T03:05:20;8.70;;;4.20;;
57331;SDS011;43164;50.908;18.092;2023-06-14T03:07:49;9.50;;;4.40;;
57331;SDS011;43164;50.908;18.092;2023-06-14T03:10:16;9.30;;;4.40;;
57331;SDS011;43164;50.908;18.092;2023-06-14T03:12:44;9.40;;;4.40;;
57331;SDS011;43164;50.908;18.092;2023-06-14T03:15:12;8.70;;;4.50;;
57331;SDS011;43164;50.908;18.092;2023-06-14T03:17:41;9.40;;;4.40;;
57331;SDS011;43164;50.908;18.092;2023-06-14T03:20:13;8.70;;;3.80;;
57331;SDS011;43164;50.908;18.092;2023-06-14T03:22:42;8.80;;;4.10;;
57331;SDS011;43164;50.908;18.092;2023-06-14T03:25:15;8.00;;;4.10;;
57331;SDS011;43164;50.908;18.092;2023-06-14T03:27:43;8.60;;;4.00;;
57331;SDS011;43164;50.908;18.092;2023-06-14T03:30:11;10.00;;;4.00;;
57331;SDS011;43164;50.908;18.092;2023-06-14T03:32:40;10.70;;;4.80;;
57331;SDS011;43164;50.908;18.092;2023-06-14T03:35:08;9.80;;;4.40;;
57331;SDS011;43164;50.908;18.092;2023-06-14T03:37:44;7.80;;;4.30;;
57331;SDS011;43164;50.908;18.092;2023-06-14T03:40:12;7.70;;;4.10;;
57331;SDS011;43164;50.908;18.092;2023-06-14T03:42:42;11.60;;;4.40;;
57331;SDS011;43164;50.908;18.092;2023-06-14T03:45:10;8.70;;;4.20;;
57331;SDS011;43164;50.908;18.092;2023-06-14T03:47:41;10.50;;;4.30;;
57331;SDS011;43164;50.908;18.092;2023-06-14T03:50:09;8.90;;;4.20;;
57331;SDS011;43164;50.908;18.092;2023-06-14T03:52:37;9.30;;;4.20;;
57331;SDS011;43164;50.908;18.092;2023-06-14T03:55:06;7.50;;;3.90;;
57331;SDS011;43164;50.908;18.092;2023-06-14T03:57:34;7.60;;;3.90;;
57331;SDS011;43164;50.908;18.092;2023-06-14T04:00:04;8.50;;;4.40;;
57331;SDS011;43164;50.908;18.092;2023-06-14T04:02:32;9.40;;;4.10;;
57331;SDS011;43164;50.908;18.092;2023-06-14T04:05:01;8.80;;;4.40;;
57331;SDS011;43164;50.908;18.092;2023-06-14T04:07:29;8.10;;;4.10;;
57331;SDS011;43164;50.908;18.092;2023-06-14T04:09:57;10.10;;;4.80;;
57331;SDS011;43164;50.908;18.092;2023-06-14T04:12:26;11.00;;;5.40;;
57331;SDS011;43164;50.908;18.092;2023-06-14T04:14:54;12.90;;;6.00;;
57331;SDS011;43164;50.908;18.092;2023-06-14T04:17:22;12.30;;;6.10;;
57331;SDS011;43164;50.908;18.092;2023-06-14T04:19:50;11.40;;;6.10;;
57331;SDS011;43164;50.908;18.092;2023-06-14T04:22:19;12.10;;;6.20;;
57331;SDS011;43164;50.908;18.092;2023-06-14T04:24:47;11.80;;;6.40;;
57331;SDS011;43164;50.908;18.092;2023-06-14T04:27:22;10.50;;;5.40;;
57331;SDS011;43164;50.908;18.092;2023-06-14T04:29:52;13.60;;;6.30;;
57331;SDS011;43164;50.908;18.092;2023-06-14T04:33:14;12.10;;;5.70;;
57331;SDS011;43164;50.908;18.092;2023-06-14T04:35:58;10.50;;;5.50;;
57331;SDS011;43164;50.908;18.092;2023-06-14T04:38:35;11.70;;;5.80;;
57331;SDS011;43164;50.908;18.092;2023-06-14T04:41:06;11.00;;;6.30;;
57331;SDS011;43164;50.908;18.092;2023-06-14T04:43:42;12.70;;;6.60;;
57331;SDS011;43164;50.908;18.092;2023-06-14T04:52:33;13.20;;;6.90;;
57331;SDS011;43164;50.908;18.092;2023-06-14T04:55:07;13.10;;;7.20;;
57331;SDS011;43164;50.908;18.092;2023-06-14T04:57:36;13.50;;;7.30;;
57331;SDS011;43164;50.908;18.092;2023-06-14T05:00:05;14.20;;;7.20;;
57331;SDS011;43164;50.908;18.092;2023-06-14T05:05:14;12.90;;;7.20;;
57331;SDS011;43164;50.908;18.092;2023-06-14T05:31:33;14.70;;;8.50;;
57331;SDS011;43164;50.908;18.092;2023-06-14T05:34:10;13.10;;;8.40;;
57331;SDS011;43164;50.908;18.092;2023-06-14T05:40:28;13.80;;;7.90;;
57331;SDS011;43164;50.908;18.092;2023-06-14T05:43:03;12.90;;;6.80;;
57331;SDS011;43164;50.908;18.092;2023-06-14T05:45:30;13.40;;;7.40;;
57331;SDS011;43164;50.908;18.092;2023-06-14T05:47:59;13.50;;;7.20;;
57331;SDS011;43164;50.908;18.092;2023-06-14T05:50:26;13.80;;;8.00;;
57331;SDS011;43164;50.908;18.092;2023-06-14T05:52:54;14.20;;;7.60;;
57331;SDS011;43164;50.908;18.092;2023-06-14T05:55:21;12.40;;;7.40;;
57331;SDS011;43164;50.908;18.092;2023-06-14T05:57:51;14.90;;;8.30;;
57331;SDS011;43164;50.908;18.092;2023-06-14T06:00:19;15.50;;;7.50;;
57331;SDS011;43164;50.908;18.092;2023-06-14T06:02:48;13.10;;;7.50;;
57331;SDS011;43164;50.908;18.092;2023-06-14T06:05:16;13.50;;;6.70;;
57331;SDS011;43164;50.908;18.092;2023-06-14T06:07:44;14.60;;;7.60;;
57331;SDS011;43164;50.908;18.092;2023-06-14T06:10:13;12.50;;;6.50;;
57331;SDS011;43164;50.908;18.092;2023-06-14T06:12:41;12.00;;;5.90;;
57331;SDS011;43164;50.908;18.092;2023-06-14T06:15:10;14.10;;;6.90;;
57331;SDS011;43164;50.908;18.092;2023-06-14T06:17:39;12.50;;;6.90;;
57331;SDS011;43164;50.908;18.092;2023-06-14T06:20:08;10.30;;;6.40;;
57331;SDS011;43164;50.908;18.092;2023-06-14T06:22:37;10.00;;;5.50;;
57331;SDS011;43164;50.908;18.092;2023-06-14T06:25:13;12.40;;;6.60;;
57331;SDS011;43164;50.908;18.092;2023-06-14T06:31:06;10.70;;;6.10;;
57331;SDS011;43164;50.908;18.092;2023-06-14T06:33:38;11.60;;;5.90;;
57331;SDS011;43164;50.908;18.092;2023-06-14T06:36:15;11.80;;;6.80;;
57331;SDS011;43164;50.908;18.092;2023-06-14T06:38:54;11.80;;;6.20;;
57331;SDS011;43164;50.908;18.092;2023-06-14T06:48:39;11.30;;;5.90;;
57331;SDS011;43164;50.908;18.092;2023-06-14T06:54:08;14.50;;;6.80;;
57331;SDS011;43164;50.908;18.092;2023-06-14T06:56:38;14.00;;;7.20;;
57331;SDS011;43164;50.908;18.092;2023-06-14T06:59:17;12.40;;;6.80;;
57331;SDS011;43164;50.908;18.092;2023-06-14T07:01:49;13.20;;;7.20;;
57331;SDS011;43164;50.908;18.092;2023-06-14T07:08:24;14.10;;;7.50;;
57331;SDS011;43164;50.908;18.092;2023-06-14T07:10:54;12.60;;;7.20;;
57331;SDS011;43164;50.908;18.092;2023-06-14T07:13:23;12.10;;;6.70;;
57331;SDS011;43164;50.908;18.092;2023-06-14T07:15:54;12.70;;;6.90;;
57331;SDS011;43164;50.908;18.092;2023-06-14T07:18:26;16.80;;;7.90;;
57331;SDS011;43164;50.908;18.092;2023-06-14T07:29:36;12.00;;;6.30;;
57331;SDS011;43164;50.908;18.092;2023-06-14T07:32:08;11.40;;;6.40;;
57331;SDS011;43164;50.908;18.092;2023-06-14T07:34:37;12.10;;;5.90;;
57331;SDS011;43164;50.908;18.092;2023-06-14T07:37:09;12.30;;;7.00;;
57331;SDS011;43164;50.908;18.092;2023-06-14T07:39:38;12.70;;;6.40;;
57331;SDS011;43164;50.908;18.092;2023-06-14T07:42:08;11.00;;;5.70;;
57331;SDS011;43164;50.908;18.092;2023-06-14T07:44:46;12.20;;;4.80;;
57331;SDS011;43164;50.908;18.092;2023-06-14T07:49:57;9.00;;;5.20;;
57331;SDS011;43164;50.908;18.092;2023-06-14T07:52:26;8.40;;;4.60;;
57331;SDS011;43164;50.908;18.092;2023-06-14T07:54:55;9.90;;;5.20;;
57331;SDS011;43164;50.908;18.092;2023-06-14T07:57:23;7.80;;;4.00;;
57331;SDS011;43164;50.908;18.092;2023-06-14T07:59:55;9.50;;;4.40;;
57331;SDS011;43164;50.908;18.092;2023-06-14T08:02:23;9.20;;;5.00;;
57331;SDS011;43164;50.908;18.092;2023-06-14T08:04:52;10.30;;;4.70;;
57331;SDS011;43164;50.908;18.092;2023-06-14T08:07:21;9.20;;;4.80;;
57331;SDS011;43164;50.908;18.092;2023-06-14T08:09:50;10.00;;;5.20;;
57331;SDS011;43164;50.908;18.092;2023-06-14T08:12:31;9.60;;;4.60;;
57331;SDS011;43164;50.908;18.092;2023-06-14T08:15:05;10.30;;;4.50;;
57331;SDS011;43164;50.908;18.092;2023-06-14T08:27:12;6.50;;;3.00;;
57331;SDS011;43164;50.908;18.092;2023-06-14T08:29:48;8.40;;;4.00;;
57331;SDS011;43164;50.908;18.092;2023-06-14T08:32:18;7.90;;;4.00;;
57331;SDS011;43164;50.908;18.092;2023-06-14T08:34:46;8.00;;;4.20;;
57331;SDS011;43164;50.908;18.092;2023-06-14T08:37:15;8.30;;;4.10;;
57331;SDS011;43164;50.908;18.092;2023-06-14T08:39:43;8.90;;;4.40;;
57331;SDS011;43164;50.908;18.092;2023-06-14T08:42:12;7.20;;;3.90;;
57331;SDS011;43164;50.908;18.092;2023-06-14T09:02:27;8.80;;;3.90;;
57331;SDS011;43164;50.908;18.092;2023-06-14T09:24:34;8.10;;;4.00;;
57331;SDS011;43164;50.908;18.092;2023-06-14T09:27:04;7.60;;;3.80;;
57331;SDS011;43164;50.908;18.092;2023-06-14T09:29:33;8.00;;;3.70;;
57331;SDS011;43164;50.908;18.092;2023-06-14T09:32:03;9.80;;;4.20;;
57331;SDS011;43164;50.908;18.092;2023-06-14T09:34:34;8.00;;;4.40;;
57331;SDS011;43164;50.908;18.092;2023-06-14T09:37:04;8.20;;;3.50;;
57331;SDS011;43164;50.908;18.092;2023-06-14T09:39:33;7.00;;;3.80;;
57331;SDS011;43164;50.908;18.092;2023-06-14T09:42:02;7.90;;;4.10;;
57331;SDS011;43164;50.908;18.092;2023-06-14T09:44:50;7.60;;;3.60;;
57331;SDS011;43164;50.908;18.092;2023-06-14T09:47:20;8.80;;;3.30;;
57331;SDS011;43164;50.908;18.092;2023-06-14T09:49:50;7.60;;;3.90;;
57331;SDS011;43164;50.908;18.092;2023-06-14T09:52:27;6.90;;;3.60;;
57331;SDS011;43164;50.908;18.092;2023-06-14T09:54:55;7.20;;;3.60;;
57331;SDS011;43164;50.908;18.092;2023-06-14T09:57:25;8.90;;;3.80;;
57331;SDS011;43164;50.908;18.092;2023-06-14T09:59:56;7.80;;;3.60;;
57331;SDS011;43164;50.908;18.092;2023-06-14T10:02:31;8.20;;;3.70;;
57331;SDS011;43164;50.908;18.092;2023-06-14T10:05:06;9.40;;;3.90;;
57331;SDS011;43164;50.908;18.092;2023-06-14T10:07:56;8.60;;;3.40;;
57331;SDS011;43164;50.908;18.092;2023-06-14T10:10:39;7.20;;;3.70;;
57331;SDS011;43164;50.908;18.092;2023-06-14T10:17:09;7.60;;;3.80;;
57331;SDS011;43164;50.908;18.092;2023-06-14T10:19:48;6.80;;;3.40;;
57331;SDS011;43164;50.908;18.092;2023-06-14T10:22:22;11.10;;;3.50;;
57331;SDS011;43164;50.908;18.092;2023-06-14T10:25:31;7.80;;;3.60;;
57331;SDS011;43164;50.908;18.092;2023-06-14T10:31:03;6.00;;;3.20;;
57331;SDS011;43164;50.908;18.092;2023-06-14T10:46:16;7.30;;;3.20;;
57331;SDS011;43164;50.908;18.092;2023-06-14T10:48:56;6.20;;;3.00;;
57331;SDS011;43164;50.908;18.092;2023-06-14T11:06:26;7.00;;;3.40;;
57331;SDS011;43164;50.908;18.092;2023-06-14T11:41:40;7.90;;;3.60;;
57331;SDS011;43164;50.908;18.092;2023-06-14T11:51:39;6.90;;;3.50;;
57331;SDS011;43164;50.908;18.092;2023-06-14T11:58:32;7.10;;;3.30;;
57331;SDS011;43164;50.908;18.092;2023-06-14T12:15:42;5.70;;;2.40;;
57331;SDS011;43164;50.908;18.092;2023-06-14T12:18:38;5.80;;;2.00;;
57331;SDS011;43164;50.908;18.092;2023-06-14T14:00:53;6.40;;;3.00;;
57331;SDS011;43164;50.908;18.092;2023-06-14T14:07:07;6.30;;;3.20;;
57331;SDS011;43164;50.908;18.092;2023-06-14T14:09:45;7.60;;;2.90;;
57331;SDS011;43164;50.908;18.092;2023-06-14T14:12:59;6.70;;;3.30;;
57331;SDS011;43164;50.908;18.092;2023-06-14T14:15:35;6.70;;;3.30;;
57331;SDS011;43164;50.908;18.092;2023-06-14T14:28:46;6.90;;;3.10;;
57331;SDS011;43164;50.908;18.092;2023-06-14T14:55:32;7.70;;;3.70;;
57331;SDS011;43164;50.908;18.092;2023-06-14T15:04:30;7.80;;;3.90;;
57331;SDS011;43164;50.908;18.092;2023-06-14T15:23:01;9.60;;;4.90;;
57331;SDS011;43164;50.908;18.092;2023-06-14T15:28:53;10.00;;;4.10;;
57331;SDS011;43164;50.908;18.092;2023-06-14T15:35:06;9.80;;;5.10;;
57331;SDS011;43164;50.908;18.092;2023-06-14T15:37:48;9.30;;;4.70;;
57331;SDS011;43164;50.908;18.092;2023-06-14T15:40:32;11.20;;;5.20;;
57331;SDS011;43164;50.908;18.092;2023-06-14T15:46:36;12.30;;;5.10;;
57331;SDS011;43164;50.908;18.092;2023-06-14T15:49:11;9.80;;;4.90;;
57331;SDS011;43164;50.908;18.092;2023-06-14T15:51:47;8.60;;;4.80;;
57331;SDS011;43164;50.908;18.092;2023-06-14T15:54:33;11.30;;;5.30;;
57331;SDS011;43164;50.908;18.092;2023-06-14T15:57:04;11.40;;;5.40;;
57331;SDS011;43164;50.908;18.092;2023-06-14T15:59:45;10.80;;;5.00;;
57331;SDS011;43164;50.908;18.092;2023-06-14T16:26:12;13.60;;;7.40;;
57331;SDS011;43164;50.908;18.092;2023-06-14T16:35:35;12.90;;;7.20;;
57331;SDS011;43164;50.908;18.092;2023-06-14T16:38:18;13.00;;;6.80;;
57331;SDS011;43164;50.908;18.092;2023-06-14T16:40:58;13.00;;;7.40;;
57331;SDS011;43164;50.908;18.092;2023-06-14T16:43:32;13.70;;;8.00;;
57331;SDS011;43164;50.908;18.092;2023-06-14T17:07:38;12.00;;;7.50;;
57331;SDS011;43164;50.908;18.092;2023-06-14T17:10:29;12.50;;;6.60;;
57331;SDS011;43164;50.908;18.092;2023-06-14T17:13:02;12.30;;;6.60;;
57331;SDS011;43164;50.908;18.092;2023-06-14T17:15:38;12.50;;;8.10;;
57331;SDS011;43164;50.908;18.092;2023-06-14T17:18:14;10.80;;;6.50;;
57331;SDS011;43164;50.908;18.092;2023-06-14T17:20:52;10.80;;;6.30;;
57331;SDS011;43164;50.908;18.092;2023-06-14T17:33:59;12.10;;;6.50;;
57331;SDS011;43164;50.908;18.092;2023-06-14T17:36:38;13.40;;;6.90;;
57331;SDS011;43164;50.908;18.092;2023-06-14T17:39:38;11.40;;;7.00;;
57331;SDS011;43164;50.908;18.092;2023-06-14T17:42:16;11.90;;;6.80;;
57331;SDS011;43164;50.908;18.092;2023-06-14T17:44:50;12.70;;;6.60;;
57331;SDS011;43164;50.908;18.092;2023-06-14T17:47:31;11.50;;;7.40;;
57331;SDS011;43164;50.908;18.092;2023-06-14T17:50:11;12.80;;;7.20;;
57331;SDS011;43164;50.908;18.092;2023-06-14T17:52:51;12.40;;;8.00;;
57331;SDS011;43164;50.908;18.092;2023-06-14T17:55:31;15.30;;;9.00;;
57331;SDS011;43164;50.908;18.092;2023-06-14T18:04:51;13.10;;;7.00;;
57331;SDS011;43164;50.908;18.092;2023-06-14T18:10:49;11.10;;;6.40;;
57331;SDS011;43164;50.908;18.092;2023-06-14T18:13:20;13.40;;;7.30;;
57331;SDS011;43164;50.908;18.092;2023-06-14T18:16:00;12.20;;;7.00;;
57331;SDS011;43164;50.908;18.092;2023-06-14T18:18:42;14.00;;;7.70;;
57331;SDS011;43164;50.908;18.092;2023-06-14T18:21:37;14.10;;;7.80;;
57331;SDS011;43164;50.908;18.092;2023-06-14T18:24:20;12.50;;;6.80;;
57331;SDS011;43164;50.908;18.092;2023-06-14T18:30:03;13.90;;;8.00;;
57331;SDS011;43164;50.908;18.092;2023-06-14T18:32:48;16.70;;;7.90;;
57331;SDS011;43164;50.908;18.092;2023-06-14T18:35:20;22.70;;;9.10;;
57331;SDS011;43164;50.908;18.092;2023-06-14T18:37:58;15.00;;;8.60;;
57331;SDS011;43164;50.908;18.092;2023-06-14T18:44:07;20.10;;;7.60;;
57331;SDS011;43164;50.908;18.092;2023-06-14T18:46:45;15.50;;;7.60;;
57331;SDS011;43164;50.908;18.092;2023-06-14T18:49:25;11.70;;;7.20;;
57331;SDS011;43164;50.908;18.092;2023-06-14T18:52:12;14.50;;;7.90;;
57331;SDS011;43164;50.908;18.092;2023-06-14T19:00:53;13.60;;;8.20;;
57331;SDS011;43164;50.908;18.092;2023-06-14T19:03:42;13.60;;;7.70;;
57331;SDS011;43164;50.908;18.092;2023-06-14T19:06:33;11.70;;;7.90;;
57331;SDS011;43164;50.908;18.092;2023-06-14T19:12:26;11.60;;;7.50;;
57331;SDS011;43164;50.908;18.092;2023-06-14T19:15:01;12.60;;;7.70;;
57331;SDS011;43164;50.908;18.092;2023-06-14T19:24:35;13.20;;;7.50;;
57331;SDS011;43164;50.908;18.092;2023-06-14T19:27:19;12.70;;;8.50;;
57331;SDS011;43164;50.908;18.092;2023-06-14T19:37:31;14.50;;;8.00;;
57331;SDS011;43164;50.908;18.092;2023-06-14T20:05:16;15.50;;;8.70;;
57331;SDS011;43164;50.908;18.092;2023-06-14T20:07:58;14.20;;;9.00;;
57331;SDS011;43164;50.908;18.092;2023-06-14T20:26:48;14.70;;;8.90;;
57331;SDS011;43164;50.908;18.092;2023-06-14T20:29:27;14.30;;;8.50;;
57331;SDS011;43164;50.908;18.092;2023-06-14T20:31:59;16.20;;;9.20;;
57331;SDS011;43164;50.908;18.092;2023-06-14T20:34:36;15.10;;;9.80;;
57331;SDS011;43164;50.908;18.092;2023-06-14T20:37:29;12.50;;;8.60;;
57331;SDS011;43164;50.908;18.092;2023-06-14T20:40:21;13.00;;;8.60;;
57331;SDS011;43164;50.908;18.092;2023-06-14T20:43:02;15.80;;;8.80;;
57331;SDS011;43164;50.908;18.092;2023-06-14T20:46:01;15.90;;;10.00;;
57331;SDS011;43164;50.908;18.092;2023-06-14T20:48:58;17.70;;;10.70;;
57331;SDS011;43164;50.908;18.092;2023-06-14T20:51:40;15.90;;;9.40;;
57331;SDS011;43164;50.908;18.092;2023-06-14T20:54:52;13.70;;;8.70;;
57331;SDS011;43164;50.908;18.092;2023-06-14T21:04:22;13.60;;;8.20;;
57331;SDS011;43164;50.908;18.092;2023-06-14T21:07:11;37.80;;;9.60;;
57331;SDS011;43164;50.908;18.092;2023-06-14T21:10:14;87.80;;;10.20;;
57331;SDS011;43164;50.908;18.092;2023-06-14T21:12:53;52.90;;;10.20;;
57331;SDS011;43164;50.908;18.092;2023-06-14T21:36:22;15.00;;;9.20;;
57331;SDS011;43164;50.908;18.092;2023-06-14T21:38:57;15.50;;;9.80;;
57331;SDS011;43164;50.908;18.092;2023-06-14T21:41:29;16.20;;;9.70;;
57331;SDS011;43164;50.908;18.092;2023-06-14T21:43:57;14.70;;;8.60;;
57331;SDS011;43164;50.908;18.092;2023-06-14T21:46:29;17.30;;;8.70;;
57331;SDS011;43164;50.908;18.092;2023-06-14T21:49:00;13.30;;;8.80;;
57331;SDS011;43164;50.908;18.092;2023-06-14T22:05:19;19.30;;;11.80;;
57331;SDS011;43164;50.908;18.092;2023-06-14T22:07:51;17.20;;;10.50;;
57331;SDS011;43164;50.908;18.092;2023-06-14T22:10:22;16.70;;;10.10;;
57331;SDS011;43164;50.908;18.092;2023-06-14T22:12:54;16.00;;;10.50;;
57331;SDS011;43164;50.908;18.092;2023-06-14T22:15:27;19.80;;;11.90;;
57331;SDS011;43164;50.908;18.092;2023-06-14T22:17:57;21.00;;;11.10;;
57331;SDS011;43164;50.908;18.092;2023-06-14T22:20:27;31.20;;;12.70;;
57331;SDS011;43164;50.908;18.092;2023-06-14T22:23:03;21.50;;;10.80;;
57331;SDS011;43164;50.908;18.092;2023-06-14T22:25:32;21.70;;;11.70;;
57331;SDS011;43164;50.908;18.092;2023-06-14T22:28:01;21.40;;;12.40;;
57331;SDS011;43164;50.908;18.092;2023-06-14T22:30:30;25.80;;;11.80;;
57331;SDS011;43164;50.908;18.092;2023-06-14T22:32:59;20.80;;;11.10;;
57331;SDS011;43164;50.908;18.092;2023-06-14T22:35:30;20.10;;;11.00;;
57331;SDS011;43164;50.908;18.092;2023-06-14T22:38:02;24.30;;;12.20;;
57331;SDS011;43164;50.908;18.092;2023-06-14T22:40:30;21.20;;;13.00;;
57331;SDS011;43164;50.908;18.092;2023-06-14T22:43:14;21.60;;;12.90;;
57331;SDS011;43164;50.908;18.092;2023-06-14T22:45:44;26.50;;;14.30;;
57331;SDS011;43164;50.908;18.092;2023-06-14T22:50:46;27.80;;;16.30;;
57331;SDS011;43164;50.908;18.092;2023-06-14T22:53:15;34.50;;;18.10;;
57331;SDS011;43164;50.908;18.092;2023-06-14T22:55:44;34.70;;;17.20;;
57331;SDS011;43164;50.908;18.092;2023-06-14T22:58:20;30.00;;;16.40;;
57331;SDS011;43164;50.908;18.092;2023-06-14T23:00:55;26.80;;;15.40;;
57331;SDS011;43164;50.908;18.092;2023-06-14T23:03:24;27.50;;;15.70;;
57331;SDS011;43164;50.908;18.092;2023-06-14T23:05:53;24.90;;;15.00;;
57331;SDS011;43164;50.908;18.092;2023-06-14T23:08:34;24.90;;;15.90;;
57331;SDS011;43164;50.908;18.092;2023-06-14T23:11:03;26.50;;;15.60;;
57331;SDS011;43164;50.908;18.092;2023-06-14T23:13:40;28.80;;;16.90;;
57331;SDS011;43164;50.908;18.092;2023-06-14T23:16:09;24.50;;;15.90;;
57331;SDS011;43164;50.908;18.092;2023-06-14T23:18:48;23.80;;;15.50;;
57331;SDS011;43164;50.908;18.092;2023-06-14T23:21:20;20.50;;;13.90;;
57331;SDS011;43164;50.908;18.092;2023-06-14T23:23:55;22.60;;;15.00;;
57331;SDS011;43164;50.908;18.092;2023-06-14T23:26:24;22.30;;;14.40;;
57331;SDS011;43164;50.908;18.092;2023-06-14T23:28:59;24.10;;;15.30;;
57331;SDS011;43164;50.908;18.092;2023-06-14T23:31:33;27.80;;;15.70;;
57331;SDS011;43164;50.908;18.092;2023-06-14T23:34:05;27.00;;;15.50;;
57331;SDS011;43164;50.908;18.092;2023-06-14T23:36:32;28.50;;;15.60;;
57331;SDS011;43164;50.908;18.092;2023-06-14T23:39:03;39.30;;;14.50;;
57331;SDS011;43164;50.908;18.092;2023-06-14T23:41:43;28.40;;;14.20;;
57331;SDS011;43164;50.908;18.092;2023-06-14T23:44:13;29.10;;;15.10;;
57331;SDS011;43164;50.908;18.092;2023-06-14T23:47:00;28.10;;;15.80;;
57331;SDS011;43164;50.908;18.092;2023-06-14T23:49:34;28.90;;;15.60;;
57331;SDS011;43164;50.908;18.092;2023-06-14T23:52:02;26.50;;;16.30;;
57331;SDS011;43164;50.908;18.092;2023-06-14T23:54:40;28.80;;;17.50;;
57331;SDS011;43164;50.908;18.092;2023-06-14T23:57:09;44.30;;;19.30;;
57331;SDS011;43164;50.908;18.092;2023-06-14T23:59:40;34.00;;;18.60;;
